• Join FlightAware (Why Join?)
  • Login
  • US Flag 
02:16AM EDT


 

Airport Tracker/Info


-or-


 

Live Flight TrackerFlight Track Log ✈ DAL3720 ✈ 22-Apr-2013 ✈ KCLT - KCVG

Flight Track Log - Related Links

Times and Time Zones

All times are in EDT time to prevent confusion due to time zone crossing. See the DAL3720 flight status page for this flight to view local times or setup timezone preferences in your user account.

Time Position Orientation Groundspeed Altitude Reporting Facility
EDT Latitude Longitude Course Direction KTS MPH feet Rate Location/Type
07:26AM 35.2289 -80.9572 13° North 149 171 1,700  Level Atlanta Center
07:27AM 35.2692 -80.9836 332° Northwest 202 232 3,200 2,040 Climbing Atlanta Center
07:28AM 35.3572 -80.9981 352° North 265 305 6,500 2,280 Climbing Atlanta Center
07:29AM 35.2697 -81.2077 68° East  Level FlightAware Approximate
07:29AM 35.4028 -80.9839 14° North 268 308 7,900  Level Atlanta Center
07:30AM 35.3385 -81.0801 52° Northeast  Level FlightAware Approximate
07:30AM 35.4794 -80.9631 12° North 288 331 10,400  Level Atlanta Center
07:31AM 35.4207 -80.9655 13° North  Level FlightAware Approximate
07:31AM 35.5828 -80.9286 15° North 332 382 12,300  Level Atlanta Center
07:32AM 35.6781 -80.8994 14° North 343 395 13,700 1,680 Climbing Atlanta Center
07:33AM 35.7797 -80.8800 North 358 412 15,700 1,740 Climbing Atlanta Center
07:34AM 35.8725 -80.9200 341° North 352 405 17,200 1,320 Climbing Atlanta Center
07:35AM 35.9639 -80.9833 331° Northwest 352 405 18,400 1,200 Climbing Atlanta Center
07:36AM 36.0489 -81.0469 329° Northwest 362 417 19,700 1,200 Climbing Atlanta Center
07:37AM 36.1461 -81.1022 335° Northwest 373 429 20,900 1,140 Climbing Atlanta Center
07:38AM 36.2550 -81.1139 355° North 378 435 22,000 900 Climbing Atlanta Center
07:39AM 36.3481 -81.1697 334° Northwest 385 443 22,700 780 Climbing Atlanta Center
07:40AM 36.3797 -81.2744 291° West 348 400 23,600 840 Climbing Atlanta Center
07:41AM 36.4156 -81.3969 290° West 361 415 24,400 780 Climbing Atlanta Center
07:42AM 36.4517 -81.5247 289° West 382 440 25,200 720 Climbing Atlanta Center
07:43AM 36.4897 -81.6475 291° West 382 440 25,900 360 Climbing Atlanta Center
07:44AM 36.5278 -81.7886 289° West 382 440 26,000  Climbing Atlanta Center
07:45AM 36.5633 -81.9194 289° West 392 451 26,000  Level Atlanta Center
07:47AM 36.6331 -82.1622 290° West 416 479 26,000  Level Indianapolis Center
07:48AM 36.6717 -82.2997 289° West 418 481 26,000  Level Indianapolis Center
07:49AM 36.7103 -82.4381 289° West 422 486 26,000  Level Indianapolis Center
07:50AM 36.7544 -82.5997 289° West 422 486 26,000  Level Indianapolis Center
07:51AM 36.8000 -82.7350 293° West 423 487 26,000  Level Indianapolis Center
07:52AM 36.8714 -82.8578 306° West 429 494 26,000  Level Indianapolis Center
07:53AM 36.9431 -82.9778 307° West 434 499 26,000  Level Indianapolis Center
07:54AM 37.0200 -83.1094 306° West 433 498 26,000  Level Indianapolis Center
07:55AM 37.0906 -83.2300 306° West 429 494 26,000  Level Indianapolis Center
07:56AM 37.1617 -83.3517 306° West 431 496 26,000  Level Indianapolis Center
07:57AM 37.2328 -83.4739 306° West 433 498 26,000  Level Indianapolis Center
07:58AM 37.3036 -83.5961 306° West 432 497 26,000 -120 Level Indianapolis Center
07:59AM 37.4231 -83.6272 348° North 450 518 25,800 -780 Descending Indianapolis Center
08:00AM 37.5497 -83.6044 North 456 525 24,400 -900 Descending Indianapolis Center
08:01AM 37.6683 -83.6103 358° North 437 503 24,000 -540 Descending Indianapolis Center
08:02AM 37.7867 -83.6922 331° Northwest 417 480 23,400 -1,380 Descending Indianapolis Center
08:03AM 37.8906 -83.7656 331° Northwest 425 489 21,200 -2,160 Descending Indianapolis Center
08:04AM 37.9872 -83.8333 331° Northwest 399 459 19,000 -2,040 Descending Indianapolis Center
08:05AM 38.0797 -83.8989 331° Northwest 384 442 17,100 -2,040 Descending Indianapolis Center
08:06AM 38.1711 -83.9633 331° Northwest 376 433 14,900 -2,160 Descending Indianapolis Center
08:07AM 38.2619 -84.0300 330° Northwest 376 433 12,700 -1,860 Descending Indianapolis Center
08:08AM 38.3514 -84.0931 331° Northwest 367 422 11,100 -840 Descending Indianapolis Center
08:09AM 38.4511 -84.1667 330° Northwest 357 411 11,000 -60 Descending Indianapolis Center
08:10AM 38.5372 -84.2286 331° Northwest 354 407 11,000  Level Indianapolis Center
08:11AM 38.6247 -84.2922 330° Northwest 358 412 11,000  Level Indianapolis Center
08:13AM 38.7156 -84.3572 331° Northwest 365 420 11,000 -300 Level Indianapolis Center
08:14AM 38.7972 -84.4158 331° Northwest 335 386 10,400 -960 Descending Indianapolis Center
08:15AM 38.8653 -84.4631 332° Northwest 282 325 9,100 -720 Descending Indianapolis Center
08:16AM 38.9333 -84.5167 329° Northwest 268 308 9,000 -300 Descending Cincinnati TRACON
08:17AM 39.0000 -84.5333 349° North 271 312 8,600 -1,080 Descending Cincinnati TRACON
08:18AM 39.0833 -84.5333 360° North 271 312 6,900 -1,860 Descending Cincinnati TRACON
08:18AM 39.1500 -84.5333 360° North 265 305 5,100 -1,920 Descending Cincinnati TRACON
08:19AM 39.1567 -84.5419 315° West 273 314 4,700 -1,440 Descending Indianapolis Center
08:20AM 39.1750 -84.6117 289° West 241 277 3,300 -1,380 Descending Indianapolis Center